Time;durP1;ratioP1;P1;durP2;ratioP2;P2;SDS_P1;SDS_P2;PMS_P1;PMS_P2;Temp;Humidity;BMP_temperature;BMP_pressure;BME280_temperature;BME280_humidity;BME280_pressure;Samples;Min_cycle;Max_cycle;Signal;HPM_P1;HPM_P2
2022/11/08 00:01:59;;;;;;;11.90;7.00;;;5.70;99.90;;;;;;5053305;28;20079;-79
2022/11/08 00:04:25;;;;;;;11.97;6.63;;;5.70;99.90;;;;;;5053112;28;20033;-79
2022/11/08 00:15:05;;;;;;;10.57;6.50;;;5.50;99.90;;;;;;5053267;28;20044;-79
2022/11/08 00:17:31;;;;;;;7.93;5.60;;;5.50;99.90;;;;;;5052401;28;20041;-79
2022/11/08 00:19:57;;;;;;;10.17;5.73;;;5.40;99.90;;;;;;5053077;28;20025;-79
2022/11/08 00:22:23;;;;;;;8.57;5.73;;;5.40;99.90;;;;;;5052878;28;20128;-79
2022/11/08 00:24:50;;;;;;;7.03;5.07;;;5.30;99.90;;;;;;5052978;28;20029;-79
2022/11/08 00:27:21;;;;;;;11.17;6.33;;;5.30;99.90;;;;;;5052875;28;20097;-79
2022/11/08 00:29:47;;;;;;;9.80;6.10;;;5.30;99.90;;;;;;5052521;28;20025;-79
2022/11/08 00:32:15;;;;;;;10.10;6.23;;;5.20;99.90;;;;;;5055187;28;20048;-79
2022/11/08 00:34:41;;;;;;;9.47;6.13;;;5.20;99.90;;;;;;5055815;28;20029;-79
2022/11/08 00:37:07;;;;;;;9.13;5.57;;;5.20;99.90;;;;;;5055328;28;20097;-79
2022/11/08 00:39:33;;;;;;;9.80;4.67;;;5.20;99.90;;;;;;5055015;28;20138;-79
2022/11/08 00:41:58;;;;;;;7.60;4.40;;;5.20;99.90;;;;;;5055257;28;20075;-79
2022/11/08 00:44:24;;;;;;;9.07;4.30;;;5.10;99.90;;;;;;5055329;28;20049;-80
2022/11/08 00:46:50;;;;;;;6.90;4.43;;;5.20;99.90;;;;;;5055028;28;20138;-79
2022/11/08 00:49:16;;;;;;;7.43;4.40;;;5.10;99.90;;;;;;5055139;28;20021;-79
2022/11/08 00:51:42;;;;;;;9.13;4.07;;;5.10;99.90;;;;;;5054926;28;20454;-79
2022/11/08 00:54:09;;;;;;;5.93;3.80;;;5.10;99.90;;;;;;5055281;28;20032;-79
2022/11/08 00:56:35;;;;;;;5.47;3.33;;;5.10;99.90;;;;;;5054944;28;20099;-79
2022/11/08 00:59:00;;;;;;;7.77;3.70;;;5.10;99.90;;;;;;5055273;28;20426;-79
2022/11/08 01:01:26;;;;;;;6.33;3.23;;;5.10;99.90;;;;;;5055012;28;20420;-79
2022/11/08 01:03:52;;;;;;;6.57;3.47;;;5.10;99.90;;;;;;5054986;28;20083;-79
2022/11/08 01:06:20;;;;;;;11.03;4.50;;;5.00;99.90;;;;;;5054517;28;20032;-79
2022/11/08 01:08:46;;;;;;;7.67;5.20;;;5.00;99.90;;;;;;5053758;28;20065;-79
2022/11/08 01:11:14;;;;;;;10.37;4.67;;;5.00;99.90;;;;;;5054590;28;20027;-79
2022/11/08 01:13:40;;;;;;;5.13;3.40;;;4.90;99.90;;;;;;5054722;28;20060;-79
2022/11/08 01:16:17;;;;;;;5.90;3.20;;;4.90;99.90;;;;;;5054665;28;20053;-79
2022/11/08 01:18:44;;;;;;;7.23;3.60;;;4.90;99.90;;;;;;5054301;28;20051;-79
2022/11/08 01:21:10;;;;;;;5.67;2.97;;;4.90;99.90;;;;;;5054344;28;20079;-79
2022/11/08 01:23:36;;;;;;;4.93;3.10;;;4.80;99.90;;;;;;5054376;28;20040;-79
2022/11/08 01:26:04;;;;;;;7.73;3.43;;;4.90;99.90;;;;;;5054513;28;20025;-79
2022/11/08 01:28:31;;;;;;;5.43;3.30;;;4.80;99.90;;;;;;5054500;28;20481;-79
2022/11/08 01:30:56;;;;;;;7.03;3.67;;;4.80;99.90;;;;;;5054556;28;20021;-79
2022/11/08 01:33:22;;;;;;;6.27;3.40;;;4.80;99.90;;;;;;5054375;28;20044;-79
2022/11/08 01:35:47;;;;;;;8.83;3.53;;;4.80;99.90;;;;;;5054234;28;20474;-79
2022/11/08 01:38:13;;;;;;;5.40;3.60;;;4.70;99.90;;;;;;5054222;28;20028;-79
2022/11/08 01:40:47;;;;;;;5.03;2.80;;;4.70;99.90;;;;;;5053979;28;20025;-79
2022/11/08 01:43:24;;;;;;;4.70;3.03;;;4.60;99.90;;;;;;5033964;28;20026;-79
2022/11/08 01:46:08;;;;;;;6.50;3.30;;;4.60;99.90;;;;;;5033956;28;20426;-79
2022/11/08 01:48:38;;;;;;;6.30;3.53;;;4.60;99.90;;;;;;5033944;28;20036;-79
2022/11/08 01:51:05;;;;;;;8.30;3.50;;;4.50;99.90;;;;;;5034130;28;20026;-79
2022/11/08 01:53:31;;;;;;;7.87;3.57;;;4.50;99.90;;;;;;5032847;28;20029;-79
2022/11/08 01:55:57;;;;;;;5.97;3.40;;;4.40;99.90;;;;;;5033051;28;20063;-78
2022/11/08 01:58:28;;;;;;;4.23;3.30;;;4.40;99.90;;;;;;5033229;28;20112;-78
2022/11/08 02:00:55;;;;;;;4.93;3.33;;;4.40;99.90;;;;;;5033472;28;20180;-78
2022/11/08 02:03:21;;;;;;;4.77;3.10;;;4.30;99.90;;;;;;5033326;28;20375;-79
2022/11/08 02:05:47;;;;;;;7.83;4.77;;;4.30;99.90;;;;;;5033144;28;20017;-78
2022/11/08 02:08:24;;;;;;;15.70;7.60;;;4.30;99.90;;;;;;5033068;28;20052;-79
2022/11/08 02:10:52;;;;;;;15.77;6.93;;;4.30;99.90;;;;;;5033171;28;20429;-78
2022/11/08 02:13:29;;;;;;;6.53;3.57;;;4.30;99.90;;;;;;5031612;28;20022;-79
2022/11/08 02:15:54;;;;;;;4.77;3.47;;;4.30;99.90;;;;;;5033354;28;20034;-79
2022/11/08 02:18:22;;;;;;;13.30;3.93;;;4.30;99.90;;;;;;5031720;28;20053;-79
2022/11/08 02:21:03;;;;;;;6.30;3.77;;;4.30;99.90;;;;;;5033315;28;20056;-79
2022/11/08 02:23:42;;;;;;;4.67;3.37;;;4.20;99.90;;;;;;5032140;28;20034;-78
2022/11/08 02:26:08;;;;;;;6.20;3.50;;;4.20;99.90;;;;;;5033428;28;20075;-79
2022/11/08 02:28:52;;;;;;;5.20;3.03;;;4.20;99.90;;;;;;5033323;28;20018;-79
2022/11/08 02:31:20;;;;;;;5.67;3.10;;;4.10;99.90;;;;;;5033214;28;20097;-79
2022/11/08 02:33:47;;;;;;;5.53;2.70;;;4.10;99.90;;;;;;5033046;28;20033;-79
2022/11/08 02:36:20;;;;;;;6.30;3.07;;;4.10;99.90;;;;;;5031760;28;20033;-79
2022/11/08 02:38:50;;;;;;;7.27;3.73;;;4.00;99.90;;;;;;5031618;28;20039;-79
2022/11/08 02:41:16;;;;;;;4.73;2.80;;;4.00;99.90;;;;;;5032934;28;20200;-78
2022/11/08 02:43:41;;;;;;;3.83;2.90;;;3.90;99.90;;;;;;5033512;28;20425;-78
2022/11/08 02:46:07;;;;;;;5.53;2.93;;;3.90;99.90;;;;;;5033010;28;20093;-79
2022/11/08 02:48:32;;;;;;;3.80;2.80;;;3.80;99.90;;;;;;5032914;28;20485;-78
2022/11/08 02:50:58;;;;;;;3.90;2.67;;;3.80;99.90;;;;;;5042033;28;20078;-79
2022/11/08 02:53:23;;;;;;;6.47;2.70;;;3.80;99.90;;;;;;5052795;28;20045;-79
2022/11/08 02:55:49;;;;;;;5.13;2.80;;;3.80;99.90;;;;;;5052992;28;20032;-78
2022/11/08 02:58:15;;;;;;;4.20;2.47;;;3.80;99.90;;;;;;5052753;28;20120;-78
2022/11/08 03:00:40;;;;;;;5.23;3.13;;;3.70;99.90;;;;;;5052819;28;20032;-78
2022/11/08 03:03:06;;;;;;;3.80;2.60;;;3.70;99.90;;;;;;5052634;28;20112;-79
2022/11/08 03:05:32;;;;;;;4.67;2.73;;;3.70;99.90;;;;;;5052326;28;20017;-79
2022/11/08 03:07:58;;;;;;;3.87;2.50;;;3.70;99.90;;;;;;5052506;28;20125;-78
2022/11/08 03:10:25;;;;;;;3.63;2.70;;;3.60;99.90;;;;;;5052609;28;20494;-78
2022/11/08 03:12:59;;;;;;;3.30;2.30;;;3.60;99.90;;;;;;5052661;28;20028;-79
2022/11/08 03:15:24;;;;;;;4.90;2.80;;;3.60;99.90;;;;;;5052745;28;20029;-79
2022/11/08 03:17:50;;;;;;;4.80;2.67;;;3.50;99.90;;;;;;5052172;28;20041;-79
2022/11/08 03:20:17;;;;;;;5.23;2.93;;;3.50;99.90;;;;;;5052517;28;20068;-79
2022/11/08 03:22:43;;;;;;;7.57;2.60;;;3.50;99.90;;;;;;5052487;28;20087;-78
2022/11/08 03:25:09;;;;;;;4.27;2.53;;;3.50;99.90;;;;;;5052629;28;20022;-79
2022/11/08 03:27:34;;;;;;;6.50;3.23;;;3.50;99.90;;;;;;5052719;28;20111;-79
2022/11/08 03:30:00;;;;;;;4.63;2.90;;;3.50;99.90;;;;;;5052230;28;20489;-79
2022/11/08 03:32:25;;;;;;;4.17;2.50;;;3.50;99.90;;;;;;5052386;28;20357;-78
2022/11/08 03:34:51;;;;;;;3.63;2.40;;;3.40;99.90;;;;;;5051040;28;20029;-78
2022/11/08 03:37:16;;;;;;;5.60;2.77;;;3.40;99.90;;;;;;5052330;28;20099;-78
2022/11/08 03:39:42;;;;;;;5.20;2.87;;;3.40;99.90;;;;;;5052450;28;20081;-78
2022/11/08 03:42:08;;;;;;;4.27;2.63;;;3.30;99.90;;;;;;5052243;28;20381;-79
2022/11/08 03:44:33;;;;;;;5.80;2.40;;;3.30;99.90;;;;;;5052392;28;20424;-78
2022/11/08 03:46:59;;;;;;;5.10;2.90;;;3.20;99.90;;;;;;5052343;28;20521;-78
2022/11/08 03:49:26;;;;;;;5.23;2.80;;;3.20;99.90;;;;;;5052180;28;20021;-78
2022/11/08 03:51:53;;;;;;;4.63;2.87;;;3.20;99.90;;;;;;5052413;28;20037;-78
2022/11/08 03:54:18;;;;;;;5.00;2.73;;;3.20;99.90;;;;;;5052255;28;20126;-78
2022/11/08 03:56:44;;;;;;;5.23;3.20;;;3.20;99.90;;;;;;5052001;28;20033;-78
2022/11/08 03:59:11;;;;;;;7.17;2.93;;;3.10;99.90;;;;;;5052413;28;20037;-79
2022/11/08 04:01:37;;;;;;;3.90;2.70;;;3.20;99.90;;;;;;5052067;28;20036;-78
2022/11/08 04:04:04;;;;;;;3.83;3.13;;;3.20;99.90;;;;;;5052209;28;20099;-79
2022/11/08 04:06:29;;;;;;;4.23;2.80;;;3.20;99.90;;;;;;5051854;28;20025;-79
2022/11/08 04:08:55;;;;;;;3.93;2.50;;;3.10;99.90;;;;;;5052087;28;20025;-79
2022/11/08 04:16:50;;;;;;;4.85;3.10;;;3.10;99.90;;;;;;5055689;28;20454;-79
2022/11/08 04:22:00;;;;;;;5.87;3.00;;;3.10;99.90;;;;;;5055661;28;20040;-79
2022/11/08 04:24:25;;;;;;;6.43;2.93;;;3.10;99.90;;;;;;5054285;28;20469;-79
2022/11/08 04:26:51;;;;;;;7.60;3.07;;;3.10;99.90;;;;;;5055611;28;20033;-78
2022/11/08 04:29:17;;;;;;;4.13;2.70;;;3.00;99.90;;;;;;5055662;28;20434;-78
2022/11/08 04:31:42;;;;;;;8.57;2.90;;;3.00;99.90;;;;;;5055439;28;20032;-79
2022/11/08 04:34:08;;;;;;;4.83;2.67;;;3.00;99.90;;;;;;5055398;28;20100;-78
2022/11/08 04:36:33;;;;;;;5.50;2.80;;;3.00;99.90;;;;;;5055282;28;20524;-79
2022/11/08 04:38:59;;;;;;;5.60;2.67;;;3.00;99.90;;;;;;5055311;28;20021;-79
2022/11/08 04:41:25;;;;;;;5.33;3.00;;;3.00;99.90;;;;;;5055286;28;20052;-79
2022/11/08 04:43:53;;;;;;;6.30;3.10;;;3.00;99.90;;;;;;5054285;28;20021;-78
2022/11/08 04:46:21;;;;;;;4.43;2.90;;;3.00;99.90;;;;;;5055090;28;20465;-79
2022/11/08 04:48:50;;;;;;;4.87;2.70;;;3.00;99.90;;;;;;5054840;28;20347;-79
2022/11/08 04:51:26;;;;;;;6.47;2.57;;;3.00;99.90;;;;;;5054961;28;20154;-78
2022/11/08 04:53:55;;;;;;;5.43;2.77;;;2.90;99.90;;;;;;5055124;28;20017;-79
2022/11/08 04:56:21;;;;;;;6.73;2.53;;;2.90;99.90;;;;;;5054892;28;20370;-79
2022/11/08 04:58:48;;;;;;;4.67;2.60;;;2.90;99.90;;;;;;5054988;28;20028;-79
2022/11/08 05:01:19;;;;;;;9.30;3.47;;;2.80;99.90;;;;;;5054759;28;20155;-79
2022/11/08 05:03:49;;;;;;;6.70;3.30;;;2.80;99.90;;;;;;5054800;28;20166;-79
2022/11/08 05:06:18;;;;;;;5.33;3.00;;;2.80;99.90;;;;;;5055068;28;20392;-79
2022/11/08 05:08:43;;;;;;;6.30;2.87;;;2.70;99.90;;;;;;5053067;28;20426;-78
2022/11/08 05:11:12;;;;;;;5.53;2.60;;;2.70;99.90;;;;;;5054469;28;20239;-78
2022/11/08 05:13:38;;;;;;;6.53;2.80;;;2.70;99.90;;;;;;5054718;28;20021;-79
2022/11/08 05:16:06;;;;;;;3.27;2.40;;;2.70;99.90;;;;;;5054750;28;20025;-78
2022/11/08 05:18:32;;;;;;;3.30;2.40;;;2.70;99.90;;;;;;5054351;28;20044;-78
2022/11/08 05:23:44;;;;;;;4.28;2.20;;;2.60;99.90;;;;;;5055186;28;20587;-78
2022/11/08 05:26:10;;;;;;;9.10;2.40;;;2.60;99.90;;;;;;5054915;28;20475;-78
2022/11/08 05:28:36;;;;;;;4.77;3.10;;;2.60;99.90;;;;;;5054790;28;20021;-78
2022/11/08 05:31:02;;;;;;;3.83;2.40;;;2.60;99.90;;;;;;5054769;28;20044;-79
2022/11/08 05:33:28;;;;;;;3.33;2.70;;;2.60;99.90;;;;;;5053053;28;20032;-78
2022/11/08 05:35:54;;;;;;;3.83;2.70;;;2.50;99.90;;;;;;5054443;28;20473;-78
2022/11/08 05:38:20;;;;;;;4.33;3.10;;;2.40;99.90;;;;;;5054228;28;20048;-78
2022/11/08 05:40:46;;;;;;;5.07;3.43;;;2.40;99.90;;;;;;5054278;28;20040;-78
2022/11/08 05:43:12;;;;;;;5.73;2.90;;;2.30;99.90;;;;;;5054200;28;20083;-79
2022/11/08 05:45:37;;;;;;;7.80;3.27;;;2.30;99.90;;;;;;5054128;28;20078;-83
2022/11/08 05:48:04;;;;;;;8.30;3.20;;;2.30;99.90;;;;;;5050948;28;20052;-80
2022/11/08 05:50:33;;;;;;;4.77;2.97;;;2.30;99.90;;;;;;5049222;28;20025;-80
2022/11/08 05:52:59;;;;;;;5.33;3.37;;;2.20;99.90;;;;;;5050528;28;20029;-80
2022/11/08 05:55:25;;;;;;;5.37;3.50;;;2.20;99.90;;;;;;5051494;28;20039;-81
2022/11/08 05:57:51;;;;;;;6.77;3.10;;;2.20;99.90;;;;;;5051081;28;20025;-80
2022/11/08 06:00:17;;;;;;;5.63;3.00;;;2.20;99.90;;;;;;5051161;28;20037;-80
2022/11/08 06:02:43;;;;;;;7.43;2.87;;;2.10;99.90;;;;;;5051404;28;20025;-81
2022/11/08 06:05:09;;;;;;;5.40;2.93;;;2.10;99.90;;;;;;5051037;28;20388;-81
2022/11/08 06:07:35;;;;;;;5.27;3.20;;;2.10;99.90;;;;;;5050834;28;20057;-81
2022/11/08 06:10:01;;;;;;;6.37;3.30;;;2.10;99.90;;;;;;5050935;28;20017;-81
2022/11/08 06:12:27;;;;;;;6.83;2.90;;;2.10;99.90;;;;;;5051097;28;20478;-81
2022/11/08 06:14:52;;;;;;;5.27;3.10;;;2.00;99.90;;;;;;5050807;28;20116;-81
2022/11/08 06:17:18;;;;;;;4.73;2.90;;;2.10;99.90;;;;;;5050577;28;20037;-81
2022/11/08 06:19:44;;;;;;;4.90;3.20;;;2.10;99.90;;;;;;5050767;28;20033;-81
2022/11/08 06:22:10;;;;;;;5.80;3.10;;;2.00;99.90;;;;;;5050390;28;20069;-81
2022/11/08 06:24:36;;;;;;;6.37;3.50;;;2.10;99.90;;;;;;5050608;28;20061;-81
2022/11/08 06:27:02;;;;;;;5.80;3.73;;;2.10;99.90;;;;;;5050769;28;20207;-81
2022/11/08 06:29:28;;;;;;;8.00;3.30;;;2.10;99.90;;;;;;5050692;28;20126;-81
2022/11/08 06:31:53;;;;;;;7.83;4.00;;;2.10;99.90;;;;;;5050579;28;20124;-81
2022/11/08 06:34:19;;;;;;;5.60;3.10;;;2.20;99.90;;;;;;5050678;28;20033;-81
2022/11/08 06:36:45;;;;;;;7.70;3.40;;;2.20;99.90;;;;;;5050633;28;20029;-81
2022/11/08 06:39:10;;;;;;;8.63;3.97;;;2.30;99.90;;;;;;5043009;28;20045;-81
2022/11/08 06:41:36;;;;;;;8.33;3.80;;;2.30;99.90;;;;;;5042799;28;20040;-81
2022/11/08 06:44:02;;;;;;;6.60;4.03;;;2.40;99.90;;;;;;5044769;28;20516;-81
2022/11/08 06:46:27;;;;;;;9.00;3.60;;;2.40;99.90;;;;;;5045134;28;20064;-81
2022/11/08 06:48:53;;;;;;;7.40;4.20;;;2.60;99.90;;;;;;5044026;28;20410;-81
2022/11/08 06:51:20;;;;;;;11.73;4.27;;;2.60;99.90;;;;;;5044156;28;20104;-81
2022/11/08 06:53:46;;;;;;;10.00;3.60;;;2.60;99.90;;;;;;5044065;28;20052;-81
2022/11/08 06:56:11;;;;;;;5.60;3.53;;;2.70;99.90;;;;;;5042791;28;20438;-81
2022/11/08 06:58:37;;;;;;;12.10;3.80;;;2.80;99.90;;;;;;5042863;28;20082;-81
2022/11/08 07:01:08;;;;;;;7.17;4.07;;;2.80;99.90;;;;;;5044614;28;20037;-81
2022/11/08 07:03:34;;;;;;;10.60;4.07;;;2.80;99.90;;;;;;5044820;28;20044;-81
2022/11/08 07:06:04;;;;;;;6.10;3.57;;;2.90;99.90;;;;;;5045002;28;20033;-81
2022/11/08 07:08:31;;;;;;;6.57;3.30;;;2.90;99.90;;;;;;5043565;28;20036;-81
2022/11/08 07:10:56;;;;;;;10.27;4.13;;;3.00;99.90;;;;;;5044928;28;20040;-81
2022/11/08 07:13:22;;;;;;;8.33;4.07;;;3.00;99.90;;;;;;5044638;28;20106;-81
2022/11/08 07:15:48;;;;;;;8.23;4.00;;;3.00;99.90;;;;;;5044253;28;20127;-81
2022/11/08 07:18:15;;;;;;;6.90;3.97;;;3.10;99.90;;;;;;5042865;28;20053;-81
2022/11/08 07:20:41;;;;;;;8.97;4.23;;;3.10;99.90;;;;;;5044549;28;20029;-81
2022/11/08 07:23:08;;;;;;;7.93;3.50;;;3.20;99.90;;;;;;5043548;28;20025;-81
2022/11/08 07:25:34;;;;;;;8.90;3.97;;;3.20;99.90;;;;;;5045047;28;20028;-81
2022/11/08 07:28:02;;;;;;;7.00;3.30;;;3.20;99.90;;;;;;5043636;28;20032;-81
2022/11/08 07:30:29;;;;;;;9.27;4.10;;;3.30;99.90;;;;;;5044821;28;20021;-82
2022/11/08 07:32:54;;;;;;;10.87;4.93;;;3.30;99.90;;;;;;5044840;28;20067;-82
2022/11/08 07:35:21;;;;;;;8.93;4.13;;;3.40;99.90;;;;;;5044795;28;20064;-82
2022/11/08 07:37:46;;;;;;;9.13;4.43;;;3.40;99.90;;;;;;5043342;28;20040;-82
2022/11/08 07:40:13;;;;;;;9.63;4.30;;;3.50;99.90;;;;;;5044291;28;20381;-82
2022/11/08 07:42:39;;;;;;;8.13;5.03;;;3.50;99.90;;;;;;5043034;28;20128;-82
2022/11/08 07:45:06;;;;;;;11.13;4.73;;;3.60;99.90;;;;;;5044456;28;20025;-82
2022/11/08 07:47:32;;;;;;;11.27;4.20;;;3.70;99.90;;;;;;5043452;28;20029;-83
2022/11/08 07:50:00;;;;;;;12.07;4.30;;;3.80;99.90;;;;;;5044778;28;20056;-82
2022/11/08 07:52:26;;;;;;;10.20;5.30;;;3.90;99.90;;;;;;5049077;28;20462;-81
2022/11/08 07:54:52;;;;;;;14.27;5.27;;;4.00;99.90;;;;;;5048272;28;20065;-83
2022/11/08 07:57:18;;;;;;;12.83;6.03;;;4.10;99.90;;;;;;5047342;28;20028;-83
2022/11/08 07:59:43;;;;;;;17.77;7.07;;;4.20;99.90;;;;;;5046509;28;20090;-83
2022/11/08 08:02:12;;;;;;;14.80;7.00;;;4.30;99.90;;;;;;5048432;28;20040;-83
2022/11/08 08:04:38;;;;;;;19.77;7.67;;;4.50;99.90;;;;;;5045646;28;20039;-83
2022/11/08 08:07:04;;;;;;;20.37;9.33;;;4.60;99.90;;;;;;5047864;28;20108;-83
2022/11/08 08:09:30;;;;;;;30.47;13.33;;;4.70;99.90;;;;;;5046792;28;20071;-83
2022/11/08 08:11:55;;;;;;;21.80;10.00;;;4.90;99.90;;;;;;5048303;28;20840;-83
2022/11/08 08:14:21;;;;;;;19.90;9.50;;;5.10;99.90;;;;;;5047811;28;20029;-83
2022/11/08 08:16:46;;;;;;;27.23;11.40;;;5.30;99.90;;;;;;5047712;28;20146;-82
2022/11/08 08:19:12;;;;;;;21.40;8.63;;;5.50;99.90;;;;;;5046466;28;20040;-83
2022/11/08 08:21:38;;;;;;;11.20;6.60;;;5.70;99.90;;;;;;5047646;28;20035;-83
2022/11/08 08:24:04;;;;;;;20.00;6.23;;;5.90;99.90;;;;;;5048078;28;20067;-83
2022/11/08 08:26:30;;;;;;;12.40;5.60;;;6.20;99.90;;;;;;5048141;28;20025;-83
2022/11/08 08:28:55;;;;;;;15.47;5.57;;;6.40;99.90;;;;;;5046782;28;20101;-83
2022/11/08 08:31:21;;;;;;;13.40;5.40;;;6.60;99.90;;;;;;5047552;28;20032;-83
2022/11/08 08:33:46;;;;;;;15.03;5.20;;;6.80;99.90;;;;;;5047821;28;20040;-83
2022/11/08 08:36:12;;;;;;;15.07;4.20;;;6.90;99.90;;;;;;5048351;28;20517;-84
2022/11/08 08:38:37;;;;;;;9.90;3.73;;;7.10;99.90;;;;;;5045146;28;20029;-83
2022/11/08 08:41:03;;;;;;;7.03;3.43;;;7.30;99.90;;;;;;5048130;28;20113;-83
2022/11/08 08:43:31;;;;;;;8.47;3.23;;;7.50;99.90;;;;;;5047573;28;20037;-83
2022/11/08 08:46:01;;;;;;;4.97;2.90;;;7.60;99.90;;;;;;5047968;28;20028;-82
2022/11/08 08:48:27;;;;;;;9.40;3.47;;;7.80;99.90;;;;;;5046564;28;20064;-82
2022/11/08 08:50:53;;;;;;;7.07;3.47;;;7.90;99.90;;;;;;5047503;28;20068;-82
2022/11/08 08:53:18;;;;;;;6.87;3.10;;;8.00;99.90;;;;;;5047279;28;20044;-82
2022/11/08 08:55:44;;;;;;;7.43;3.27;;;8.10;99.90;;;;;;5047081;28;20029;-82
2022/11/08 08:58:10;;;;;;;7.00;2.70;;;8.10;99.90;;;;;;5046578;28;20385;-82
2022/11/08 09:00:36;;;;;;;8.70;3.27;;;8.20;99.90;;;;;;5048465;28;20063;-82
2022/11/08 09:03:03;;;;;;;9.00;4.73;;;8.30;99.90;;;;;;5055056;28;20405;-82
2022/11/08 09:05:30;;;;;;;9.67;3.30;;;8.30;99.90;;;;;;5054835;28;20025;-82
2022/11/08 09:07:56;;;;;;;7.60;3.50;;;8.50;99.90;;;;;;5054792;28;20028;-82
2022/11/08 09:10:22;;;;;;;7.60;3.47;;;8.60;99.90;;;;;;5052594;28;20033;-82
2022/11/08 09:12:48;;;;;;;10.53;3.90;;;8.70;99.90;;;;;;5052901;28;20029;-83
2022/11/08 09:15:15;;;;;;;7.80;2.97;;;8.80;99.90;;;;;;5047301;28;20017;-83
2022/11/08 09:17:40;;;;;;;6.37;2.90;;;9.00;99.90;;;;;;5045838;28;20091;-83
2022/11/08 09:20:07;;;;;;;12.57;3.27;;;9.10;99.90;;;;;;5047549;28;20537;-82
2022/11/08 09:22:33;;;;;;;14.93;3.37;;;9.20;99.90;;;;;;5053164;28;20028;-81
2022/11/08 09:24:59;;;;;;;13.57;3.77;;;9.30;99.90;;;;;;5054803;28;20028;-82
2022/11/08 09:27:28;;;;;;;10.00;4.23;;;9.50;99.90;;;;;;5054332;28;20408;-81
2022/11/08 09:29:55;;;;;;;11.77;6.17;;;9.50;99.90;;;;;;5053851;28;20140;-82
2022/11/08 09:32:21;;;;;;;33.50;18.20;;;9.60;99.90;;;;;;5054624;28;20017;-83
2022/11/08 09:34:47;;;;;;;23.37;17.37;;;9.70;99.90;;;;;;5047250;28;20063;-83
2022/11/08 09:37:13;;;;;;;18.03;8.30;;;9.70;99.90;;;;;;5046828;28;20037;-84
2022/11/08 09:39:38;;;;;;;9.57;4.97;;;9.80;99.90;;;;;;5045467;28;20029;-84
2022/11/08 09:42:29;;;;;;;9.37;5.27;;;9.80;99.90;;;;;;5048214;28;20086;-84
2022/11/08 09:44:57;;;;;;;8.07;4.47;;;9.80;99.90;;;;;;5050061;28;20029;-84
2022/11/08 09:47:27;;;;;;;17.07;7.60;;;9.80;99.90;;;;;;5048024;28;20095;-84
2022/11/08 09:50:38;;;;;;;13.23;6.70;;;9.80;99.90;;;;;;5045859;28;20021;-84
2022/11/08 09:53:17;;;;;;;7.47;4.57;;;9.80;99.90;;;;;;5042377;28;20119;-84
2022/11/08 09:55:49;;;;;;;11.27;3.27;;;9.80;99.90;;;;;;5047554;28;20029;-84
2022/11/08 09:58:35;;;;;;;7.20;3.73;;;9.80;99.90;;;;;;5046482;28;20097;-84
2022/11/08 10:01:02;;;;;;;7.50;3.47;;;9.90;99.90;;;;;;5047678;28;20055;-85
2022/11/08 10:03:28;;;;;;;5.87;3.13;;;10.10;99.90;;;;;;5047472;28;20493;-85
2022/11/08 10:06:28;;;;;;;8.93;3.07;;;10.20;99.90;;;;;;5047633;28;20029;-84
2022/11/08 10:09:36;;;;;;;9.67;3.77;;;10.30;99.90;;;;;;5045763;28;20037;-84
2022/11/08 10:12:33;;;;;;;9.40;3.95;;;10.40;99.90;;;;;;5033912;28;20151;-84
2022/11/08 10:15:01;;;;;;;10.95;4.15;;;10.70;99.90;;;;;;5033936;28;20032;-84
2022/11/08 10:17:42;;;;;;;8.93;3.90;;;10.90;99.90;;;;;;5033983;28;20064;-84
2022/11/08 10:20:08;;;;;;;12.57;3.67;;;11.00;99.90;;;;;;5033977;28;20021;-84
2022/11/08 10:22:33;;;;;;;11.60;3.60;;;11.00;99.90;;;;;;5033669;28;20117;-84
2022/11/08 10:25:18;;;;;;;9.65;3.72;;;11.00;99.90;;;;;;5034106;28;20462;-84
2022/11/08 10:27:43;;;;;;;9.80;3.83;;;11.10;99.90;;;;;;5034433;28;20335;-85
2022/11/08 10:30:21;;;;;;;7.78;3.72;;;11.20;99.90;;;;;;5034200;28;20259;-84
2022/11/08 10:32:54;;;;;;;9.15;3.67;;;11.20;99.90;;;;;;5034057;28;20117;-84
2022/11/08 10:35:29;;;;;;;11.60;4.43;;;11.10;99.90;;;;;;5033771;28;20052;-84
2022/11/08 10:37:57;;;;;;;;;;;11.10;99.90;;;;;;5034592;28;20053;-84
2022/11/08 10:41:04;;;;;;;10.65;3.90;;;11.10;99.90;;;;;;5033676;28;19905;-85
2022/11/08 10:43:39;;;;;;;7.25;4.40;;;11.10;99.90;;;;;;5051289;28;20029;-85
2022/11/08 10:46:23;;;;;;;8.23;3.85;;;11.10;99.90;;;;;;5033337;28;20099;-84
2022/11/08 10:48:49;;;;;;;10.93;3.83;;;11.20;99.90;;;;;;5051711;28;20033;-85
2022/11/08 10:51:14;;;;;;;13.02;4.78;;;11.20;99.90;;;;;;5053554;28;20082;-85
2022/11/08 10:53:43;;;;;;;16.00;4.47;;;11.30;99.90;;;;;;5053530;28;20037;-84
2022/11/08 10:56:09;;;;;;;8.15;3.95;;;11.40;99.90;;;;;;5053713;28;20059;-85
2022/11/08 10:58:39;;;;;;;8.38;3.85;;;11.50;99.90;;;;;;5052999;28;20382;-85
2022/11/08 11:01:12;;;;;;;8.93;3.78;;;11.70;99.90;;;;;;5033972;28;20018;-85
2022/11/08 11:03:37;;;;;;;11.82;4.82;;;11.70;99.90;;;;;;5033193;28;20111;-85
2022/11/08 11:06:05;;;;;;;9.25;4.28;;;11.90;99.90;;;;;;5041945;28;20485;-85
2022/11/08 11:08:32;;;;;;;11.52;3.67;;;12.10;99.90;;;;;;5053551;28;20525;-84
2022/11/08 11:11:22;;;;;;;9.38;4.15;;;12.20;99.90;;;;;;5053284;28;20021;-84
2022/11/08 11:14:06;;;;;;;8.80;3.88;;;12.40;99.90;;;;;;5053266;28;20017;-85
2022/11/08 11:16:34;;;;;;;6.38;3.15;;;12.40;99.90;;;;;;5051914;28;20431;-85
2022/11/08 11:19:01;;;;;;;8.38;2.88;;;12.40;99.90;;;;;;5052497;28;20048;-85
2022/11/08 11:21:37;;;;;;;6.85;3.28;;;12.50;99.90;;;;;;5053212;28;20093;-85
2022/11/08 11:24:36;;;;;;;5.38;2.85;;;12.70;99.90;;;;;;5055221;28;20032;-84
2022/11/08 11:27:13;;;;;;;10.80;3.15;;;12.90;99.90;;;;;;5040622;28;20071;-85
2022/11/08 11:29:39;;;;;;;6.90;3.30;;;13.00;99.90;;;;;;5059553;28;20036;-85
2022/11/08 11:32:24;;;;;;;7.82;4.03;;;13.20;99.90;;;;;;5058440;28;20024;-84
2022/11/08 11:34:55;;;;;;;6.45;3.70;;;13.30;99.90;;;;;;5059620;28;20103;-85
2022/11/08 11:37:41;;;;;;;6.45;3.17;;;13.40;99.90;;;;;;5058791;28;20052;-84
2022/11/08 11:40:40;;;;;;;9.90;3.05;;;13.60;99.90;;;;;;5059253;28;20020;-85
2022/11/08 11:43:25;;;;;;;4.82;2.50;;;13.70;99.90;;;;;;5059204;28;20354;-85
2022/11/08 11:45:59;;;;;;;7.47;2.97;;;13.80;99.90;;;;;;5059135;28;20104;-85
2022/11/08 11:48:30;;;;;;;6.32;2.90;;;13.90;99.90;;;;;;5059293;28;20492;-85
2022/11/08 11:50:57;;;;;;;7.55;3.22;;;13.90;99.90;;;;;;5059276;28;20029;-84
2022/11/08 11:53:28;;;;;;;7.13;3.20;;;14.00;99.90;;;;;;5059485;28;20047;-84
2022/11/08 11:55:54;;;;;;;7.50;3.05;;;14.10;99.90;;;;;;5059393;28;20040;-84
2022/11/08 11:58:49;;;;;;;9.00;2.90;;;14.30;99.90;;;;;;5056096;28;20032;-79
2022/11/08 12:01:33;;;;;;;6.25;3.22;;;14.40;99.90;;;;;;5056365;28;20037;-78
2022/11/08 12:04:28;;;;;;;6.90;2.88;;;14.50;99.90;;;;;;5056543;28;20041;-78
2022/11/08 12:07:07;;;;;;;6.30;2.67;;;14.70;99.90;;;;;;5051277;28;20128;-78
2022/11/08 12:10:30;;;;;;;7.35;3.30;;;14.80;99.90;;;;;;5058668;28;20107;-81
2022/11/08 12:13:11;;;;;;;8.38;3.60;;;14.80;99.90;;;;;;5028350;28;20056;-81
2022/11/08 12:15:43;;;;;;;9.05;3.10;;;14.70;99.90;;;;;;5059136;28;20095;-81
2022/11/08 12:18:14;;;;;;;5.53;3.00;;;14.80;99.90;;;;;;5059584;28;20471;-82
2022/11/08 12:21:06;;;;;;;7.80;2.78;;;14.90;99.90;;;;;;5059220;28;20031;-82
2022/11/08 12:23:50;;;;;;;7.45;3.55;;;14.90;99.90;;;;;;5059356;28;20036;-81
2022/11/08 12:26:32;;;;;;;7.10;3.10;;;14.90;99.90;;;;;;5059292;28;20025;-82
2022/11/08 12:29:22;;;;;;;5.22;3.00;;;14.90;99.90;;;;;;5059139;28;20017;-82
2022/11/08 12:32:16;;;;;;;8.50;3.17;;;15.00;99.90;;;;;;5058964;28;20096;-82
2022/11/08 12:34:56;;;;;;;5.82;2.45;;;15.00;99.90;;;;;;5056786;28;20028;-82
2022/11/08 12:37:32;;;;;;;9.55;3.63;;;15.20;99.90;;;;;;5055256;28;20033;-82
2022/11/08 12:40:01;;;;;;;9.57;3.13;;;15.30;99.90;;;;;;5056030;28;20059;-82
2022/11/08 12:43:00;;;;;;;5.72;2.83;;;15.40;99.90;;;;;;5055578;28;20032;-82
2022/11/08 12:45:32;;;;;;;6.53;2.22;;;15.40;99.90;;;;;;5054893;28;20060;-86
2022/11/08 12:48:31;;;;;;;6.28;2.80;;;15.40;99.90;;;;;;5053045;28;20071;-85
2022/11/08 12:51:05;;;;;;;4.80;2.55;;;15.50;99.90;;;;;;5045206;28;20057;-85
2022/11/08 12:53:49;;;;;;;5.30;2.65;;;15.40;99.90;;;;;;5052934;28;20029;-86
2022/11/08 12:56:26;;;;;;;8.10;2.92;;;15.40;99.90;;;;;;5052662;28;20351;-85
2022/11/08 12:58:53;;;;;;;8.10;2.65;;;15.40;99.90;;;;;;5053032;28;20430;-85
2022/11/08 13:01:20;;;;;;;5.90;2.95;;;15.30;99.90;;;;;;5052997;28;20445;-85
2022/11/08 13:04:17;;;;;;;7.93;2.78;;;15.20;99.90;;;;;;5052068;28;20033;-85
2022/11/08 13:07:07;;;;;;;7.28;2.42;;;15.10;99.90;;;;;;5052546;28;20032;-86
2022/11/08 13:09:56;;;;;;;6.05;2.50;;;15.10;99.90;;;;;;5052119;28;20094;-86
2022/11/08 13:12:34;;;;;;;5.28;2.50;;;15.10;99.90;;;;;;5052272;28;20036;-86
2022/11/08 13:15:01;;;;;;;5.65;2.30;;;15.10;99.90;;;;;;5052418;28;20047;-85
2022/11/08 13:17:29;;;;;;;5.32;2.10;;;15.10;99.90;;;;;;5052043;28;20052;-85
2022/11/08 13:20:47;;;;;;;6.13;2.70;;;15.00;99.90;;;;;;5052978;28;20376;-85
2022/11/08 13:23:19;;;;;;;3.75;2.20;;;15.10;99.90;;;;;;5051860;28;20068;-82
2022/11/08 13:25:45;;;;;;;4.47;2.00;;;15.10;99.90;;;;;;5052069;28;20108;-82
2022/11/08 13:28:40;;;;;;;3.75;1.73;;;15.20;99.90;;;;;;5053577;28;20521;-81